sensor_id;sensor_type;location;lat;lon;timestamp;pressure;altitude;pressure_sealevel;temperature;humidity
50292;BME280;36190;54.980;73.388;2023-05-03T00:00:14;101994.69;;;4.86;45.76
50292;BME280;36190;54.980;73.388;2023-05-03T00:02:43;101999.75;;;4.91;45.74
50292;BME280;36190;54.980;73.388;2023-05-03T00:05:11;102000.31;;;4.96;45.69
50292;BME280;36190;54.980;73.388;2023-05-03T00:07:41;101989.16;;;4.91;45.74
50292;BME280;36190;54.980;73.388;2023-05-03T00:10:09;102014.88;;;5.03;45.67
50292;BME280;36190;54.980;73.388;2023-05-03T00:12:38;102009.31;;;5.08;45.49
50292;BME280;36190;54.980;73.388;2023-05-03T00:15:08;102003.06;;;5.09;45.50
50292;BME280;36190;54.980;73.388;2023-05-03T00:17:36;102003.84;;;5.11;45.50
50292;BME280;36190;54.980;73.388;2023-05-03T00:20:06;102006.09;;;5.17;45.42
50292;BME280;36190;54.980;73.388;2023-05-03T00:22:34;102003.28;;;5.20;45.38
50292;BME280;36190;54.980;73.388;2023-05-03T00:25:02;102010.28;;;5.21;45.35
50292;BME280;36190;54.980;73.388;2023-05-03T00:27:30;102008.09;;;5.28;45.18
50292;BME280;36190;54.980;73.388;2023-05-03T00:29:57;102007.06;;;5.31;45.45
50292;BME280;36190;54.980;73.388;2023-05-03T00:32:25;102019.94;;;5.37;45.23
50292;BME280;36190;54.980;73.388;2023-05-03T00:34:52;102024.28;;;5.38;45.23
50292;BME280;36190;54.980;73.388;2023-05-03T00:37:23;102026.91;;;5.38;45.28
50292;BME280;36190;54.980;73.388;2023-05-03T00:39:51;102022.28;;;5.42;45.16
50292;BME280;36190;54.980;73.388;2023-05-03T00:42:18;102022.00;;;5.46;45.17
50292;BME280;36190;54.980;73.388;2023-05-03T00:44:46;102030.50;;;5.51;45.08
50292;BME280;36190;54.980;73.388;2023-05-03T00:47:14;102032.97;;;5.55;44.81
50292;BME280;36190;54.980;73.388;2023-05-03T00:49:43;102041.66;;;5.57;45.15
50292;BME280;36190;54.980;73.388;2023-05-03T00:52:10;102046.97;;;5.57;45.01
50292;BME280;36190;54.980;73.388;2023-05-03T00:54:39;102051.50;;;5.55;45.23
50292;BME280;36190;54.980;73.388;2023-05-03T00:57:07;102053.13;;;5.57;45.14
50292;BME280;36190;54.980;73.388;2023-05-03T00:59:36;102061.53;;;5.64;45.09
50292;BME280;36190;54.980;73.388;2023-05-03T01:02:04;102056.81;;;5.69;45.28
50292;BME280;36190;54.980;73.388;2023-05-03T01:04:31;102060.00;;;5.74;44.99
50292;BME280;36190;54.980;73.388;2023-05-03T01:07:06;102055.06;;;5.83;45.19
50292;BME280;36190;54.980;73.388;2023-05-03T01:09:42;102057.34;;;5.89;44.96
50292;BME280;36190;54.980;73.388;2023-05-03T01:12:19;102069.47;;;6.08;44.96
50292;BME280;36190;54.980;73.388;2023-05-03T01:15:00;102072.53;;;6.29;44.60
50292;BME280;36190;54.980;73.388;2023-05-03T01:17:35;102076.63;;;6.35;44.25
50292;BME280;36190;54.980;73.388;2023-05-03T01:20:07;102075.75;;;6.34;44.24
50292;BME280;36190;54.980;73.388;2023-05-03T01:22:45;102082.56;;;6.38;44.26
50292;BME280;36190;54.980;73.388;2023-05-03T01:25:14;102085.09;;;6.40;44.21
50292;BME280;36190;54.980;73.388;2023-05-03T01:27:42;102083.41;;;6.39;44.11
50292;BME280;36190;54.980;73.388;2023-05-03T01:30:11;102083.84;;;6.45;44.01
50292;BME280;36190;54.980;73.388;2023-05-03T01:32:48;102088.69;;;6.53;44.24
50292;BME280;36190;54.980;73.388;2023-05-03T01:35:24;102089.78;;;6.64;44.13
50292;BME280;36190;54.980;73.388;2023-05-03T01:37:54;102087.59;;;6.70;43.86
50292;BME280;36190;54.980;73.388;2023-05-03T01:40:25;102094.16;;;6.78;43.75
50292;BME280;36190;54.980;73.388;2023-05-03T01:42:54;102092.06;;;6.83;43.82
50292;BME280;36190;54.980;73.388;2023-05-03T01:45:22;102100.38;;;6.91;43.48
50292;BME280;36190;54.980;73.388;2023-05-03T01:47:51;102101.03;;;6.95;43.56
50292;BME280;36190;54.980;73.388;2023-05-03T01:50:18;102098.78;;;7.01;43.42
50292;BME280;36190;54.980;73.388;2023-05-03T01:52:46;102100.09;;;7.09;43.33
50292;BME280;36190;54.980;73.388;2023-05-03T01:55:16;102097.88;;;7.15;43.29
50292;BME280;36190;54.980;73.388;2023-05-03T01:57:45;102108.06;;;7.22;43.27
50292;BME280;36190;54.980;73.388;2023-05-03T02:00:13;102100.66;;;7.27;43.23
50292;BME280;36190;54.980;73.388;2023-05-03T02:02:40;102105.34;;;7.36;43.16
50292;BME280;36190;54.980;73.388;2023-05-03T02:05:09;102111.06;;;7.43;43.23
50292;BME280;36190;54.980;73.388;2023-05-03T02:07:37;102107.81;;;7.52;42.94
50292;BME280;36190;54.980;73.388;2023-05-03T02:10:05;102108.22;;;7.59;42.96
50292;BME280;36190;54.980;73.388;2023-05-03T02:12:32;102115.97;;;7.62;42.85
50292;BME280;36190;54.980;73.388;2023-05-03T02:15:01;102108.97;;;7.61;42.96
50292;BME280;36190;54.980;73.388;2023-05-03T02:17:29;102110.47;;;7.65;42.97
50292;BME280;36190;54.980;73.388;2023-05-03T02:19:56;102104.50;;;7.75;42.99
50292;BME280;36190;54.980;73.388;2023-05-03T02:22:24;102106.50;;;7.84;42.79
50292;BME280;36190;54.980;73.388;2023-05-03T02:24:51;102108.28;;;7.96;42.69
50292;BME280;36190;54.980;73.388;2023-05-03T02:27:19;102119.03;;;8.08;42.57
50292;BME280;36190;54.980;73.388;2023-05-03T02:29:47;102116.44;;;8.19;42.36
50292;BME280;36190;54.980;73.388;2023-05-03T02:32:16;102108.66;;;8.29;42.41
50292;BME280;36190;54.980;73.388;2023-05-03T02:34:43;102120.44;;;8.38;42.13
50292;BME280;36190;54.980;73.388;2023-05-03T02:37:11;102129.53;;;8.47;42.18
50292;BME280;36190;54.980;73.388;2023-05-03T02:39:38;102130.72;;;8.56;41.92
50292;BME280;36190;54.980;73.388;2023-05-03T02:42:06;102130.06;;;8.65;41.82
50292;BME280;36190;54.980;73.388;2023-05-03T02:44:34;102134.69;;;8.74;41.56
50292;BME280;36190;54.980;73.388;2023-05-03T02:47:01;102136.56;;;8.85;41.59
50292;BME280;36190;54.980;73.388;2023-05-03T02:49:30;102129.06;;;8.90;41.49
50292;BME280;36190;54.980;73.388;2023-05-03T02:51:57;102132.00;;;8.99;41.38
50292;BME280;36190;54.980;73.388;2023-05-03T02:54:25;102132.19;;;9.08;41.24
50292;BME280;36190;54.980;73.388;2023-05-03T02:56:52;102138.75;;;9.16;40.87
50292;BME280;36190;54.980;73.388;2023-05-03T02:59:20;102138.91;;;9.26;40.85
50292;BME280;36190;54.980;73.388;2023-05-03T03:01:48;102125.69;;;9.24;40.71
50292;BME280;36190;54.980;73.388;2023-05-03T03:04:16;102142.81;;;9.44;40.52
50292;BME280;36190;54.980;73.388;2023-05-03T03:06:45;102149.03;;;9.56;40.41
50292;BME280;36190;54.980;73.388;2023-05-03T03:09:12;102149.03;;;9.68;40.26
50292;BME280;36190;54.980;73.388;2023-05-03T03:11:40;102151.72;;;9.79;40.17
50292;BME280;36190;54.980;73.388;2023-05-03T03:14:07;102148.34;;;9.88;39.65
50292;BME280;36190;54.980;73.388;2023-05-03T03:16:35;102148.56;;;9.97;39.63
50292;BME280;36190;54.980;73.388;2023-05-03T03:19:03;102140.81;;;10.05;39.27
50292;BME280;36190;54.980;73.388;2023-05-03T03:21:30;102135.84;;;10.12;39.11
50292;BME280;36190;54.980;73.388;2023-05-03T03:23:59;102142.63;;;10.16;38.76
50292;BME280;36190;54.980;73.388;2023-05-03T03:26:26;102136.69;;;10.24;38.76
50292;BME280;36190;54.980;73.388;2023-05-03T03:28:54;102141.41;;;10.31;38.60
50292;BME280;36190;54.980;73.388;2023-05-03T03:31:21;102140.66;;;10.41;38.62
50292;BME280;36190;54.980;73.388;2023-05-03T03:33:50;102140.44;;;10.44;38.26
50292;BME280;36190;54.980;73.388;2023-05-03T03:36:18;102139.34;;;10.47;37.95
50292;BME280;36190;54.980;73.388;2023-05-03T03:38:45;102139.84;;;10.52;37.84
50292;BME280;36190;54.980;73.388;2023-05-03T03:41:14;102133.97;;;10.58;37.49
50292;BME280;36190;54.980;73.388;2023-05-03T03:43:42;102133.47;;;10.64;37.54
50292;BME280;36190;54.980;73.388;2023-05-03T03:46:09;102134.78;;;10.70;37.19
50292;BME280;36190;54.980;73.388;2023-05-03T03:48:37;102136.50;;;10.71;36.83
50292;BME280;36190;54.980;73.388;2023-05-03T03:51:04;102139.91;;;10.73;36.87
50292;BME280;36190;54.980;73.388;2023-05-03T03:53:31;102137.81;;;10.77;36.80
50292;BME280;36190;54.980;73.388;2023-05-03T03:55:59;102140.22;;;10.80;36.70
50292;BME280;36190;54.980;73.388;2023-05-03T03:58:28;102141.91;;;10.81;36.58
50292;BME280;36190;54.980;73.388;2023-05-03T04:00:55;102136.47;;;10.82;36.56
50292;BME280;36190;54.980;73.388;2023-05-03T04:03:23;102142.28;;;10.88;36.60
50292;BME280;36190;54.980;73.388;2023-05-03T04:05:50;102138.84;;;10.97;36.51
50292;BME280;36190;54.980;73.388;2023-05-03T04:08:18;102140.41;;;10.99;36.53
50292;BME280;36190;54.980;73.388;2023-05-03T04:10:45;102132.84;;;11.05;36.39
50292;BME280;36190;54.980;73.388;2023-05-03T04:13:12;102147.66;;;11.09;36.50
50292;BME280;36190;54.980;73.388;2023-05-03T04:15:42;102136.69;;;11.12;36.18
50292;BME280;36190;54.980;73.388;2023-05-03T04:18:10;102135.22;;;11.19;36.09
50292;BME280;36190;54.980;73.388;2023-05-03T04:20:37;102140.03;;;11.25;35.96
50292;BME280;36190;54.980;73.388;2023-05-03T04:23:04;102138.41;;;11.34;35.98
50292;BME280;36190;54.980;73.388;2023-05-03T04:25:32;102142.38;;;11.40;35.68
50292;BME280;36190;54.980;73.388;2023-05-03T04:28:01;102140.69;;;11.39;35.60
50292;BME280;36190;54.980;73.388;2023-05-03T04:30:29;102139.56;;;11.41;35.62
50292;BME280;36190;54.980;73.388;2023-05-03T04:32:58;102139.75;;;11.50;35.56
50292;BME280;36190;54.980;73.388;2023-05-03T04:35:26;102133.03;;;11.55;35.31
50292;BME280;36190;54.980;73.388;2023-05-03T04:37:53;102137.75;;;11.63;35.40
50292;BME280;36190;54.980;73.388;2023-05-03T04:40:20;102135.78;;;11.65;35.01
50292;BME280;36190;54.980;73.388;2023-05-03T04:42:48;102136.06;;;11.72;35.13
50292;BME280;36190;54.980;73.388;2023-05-03T04:45:15;102138.34;;;11.77;34.97
50292;BME280;36190;54.980;73.388;2023-05-03T04:47:43;102141.59;;;11.80;34.76
50292;BME280;36190;54.980;73.388;2023-05-03T04:50:13;102139.78;;;11.81;34.87
50292;BME280;36190;54.980;73.388;2023-05-03T04:52:40;102139.78;;;11.81;34.60
50292;BME280;36190;54.980;73.388;2023-05-03T04:55:08;102136.44;;;11.89;34.48
50292;BME280;36190;54.980;73.388;2023-05-03T04:57:36;102141.59;;;12.02;34.33
50292;BME280;36190;54.980;73.388;2023-05-03T05:00:04;102141.06;;;12.08;34.10
50292;BME280;36190;54.980;73.388;2023-05-03T05:02:35;102142.22;;;12.15;34.22
50292;BME280;36190;54.980;73.388;2023-05-03T05:05:03;102137.72;;;12.16;33.89
50292;BME280;36190;54.980;73.388;2023-05-03T05:07:32;102143.31;;;12.13;33.68
50292;BME280;36190;54.980;73.388;2023-05-03T05:10:00;102147.00;;;12.12;33.77
50292;BME280;36190;54.980;73.388;2023-05-03T05:12:27;102136.56;;;12.08;33.93
50292;BME280;36190;54.980;73.388;2023-05-03T05:14:55;102136.28;;;12.12;33.84
50292;BME280;36190;54.980;73.388;2023-05-03T05:17:22;102143.78;;;12.18;33.93
50292;BME280;36190;54.980;73.388;2023-05-03T05:19:51;102142.97;;;12.27;33.77
50292;BME280;36190;54.980;73.388;2023-05-03T05:22:19;102151.03;;;12.37;33.79
50292;BME280;36190;54.980;73.388;2023-05-03T05:24:48;102141.47;;;12.44;33.46
50292;BME280;36190;54.980;73.388;2023-05-03T05:27:15;102140.63;;;12.54;33.13
50292;BME280;36190;54.980;73.388;2023-05-03T05:29:42;102145.72;;;12.67;32.93
50292;BME280;36190;54.980;73.388;2023-05-03T05:32:10;102142.91;;;12.78;32.95
50292;BME280;36190;54.980;73.388;2023-05-03T05:34:37;102151.38;;;12.83;32.62
50292;BME280;36190;54.980;73.388;2023-05-03T05:37:05;102148.13;;;12.79;32.72
50292;BME280;36190;54.980;73.388;2023-05-03T05:39:32;102150.53;;;12.73;32.66
50292;BME280;36190;54.980;73.388;2023-05-03T05:42:01;102143.47;;;12.72;32.58
50292;BME280;36190;54.980;73.388;2023-05-03T05:44:29;102141.50;;;12.74;32.56
50292;BME280;36190;54.980;73.388;2023-05-03T05:46:57;102141.22;;;12.77;32.55
50292;BME280;36190;54.980;73.388;2023-05-03T05:49:24;102142.66;;;12.81;32.24
50292;BME280;36190;54.980;73.388;2023-05-03T05:51:52;102143.63;;;12.90;32.39
50292;BME280;36190;54.980;73.388;2023-05-03T05:54:20;102146.31;;;13.00;32.11
50292;BME280;36190;54.980;73.388;2023-05-03T05:56:47;102142.63;;;13.11;32.09
50292;BME280;36190;54.980;73.388;2023-05-03T05:59:16;102141.78;;;13.20;32.03
50292;BME280;36190;54.980;73.388;2023-05-03T06:01:44;102147.69;;;13.24;31.87
50292;BME280;36190;54.980;73.388;2023-05-03T06:04:12;102134.00;;;13.27;31.46
50292;BME280;36190;54.980;73.388;2023-05-03T06:06:40;102138.94;;;13.31;31.40
50292;BME280;36190;54.980;73.388;2023-05-03T06:09:07;102135.69;;;13.28;31.19
50292;BME280;36190;54.980;73.388;2023-05-03T06:11:35;102134.13;;;13.35;31.10
50292;BME280;36190;54.980;73.388;2023-05-03T06:14:03;102133.44;;;13.43;30.96
50292;BME280;36190;54.980;73.388;2023-05-03T06:16:35;102132.16;;;13.47;30.75
50292;BME280;36190;54.980;73.388;2023-05-03T06:19:03;102133.03;;;13.47;30.70
50292;BME280;36190;54.980;73.388;2023-05-03T06:21:31;102132.72;;;13.51;30.75
50292;BME280;36190;54.980;73.388;2023-05-03T06:23:58;102133.53;;;13.61;30.46
50292;BME280;36190;54.980;73.388;2023-05-03T06:26:26;102137.75;;;13.73;30.48
50292;BME280;36190;54.980;73.388;2023-05-03T06:28:53;102128.00;;;13.72;30.43
50292;BME280;36190;54.980;73.388;2023-05-03T06:31:21;102129.59;;;13.65;30.26
50292;BME280;36190;54.980;73.388;2023-05-03T06:33:50;102131.25;;;13.76;30.19
50292;BME280;36190;54.980;73.388;2023-05-03T06:36:17;102122.19;;;13.87;30.25
50292;BME280;36190;54.980;73.388;2023-05-03T06:38:45;102135.69;;;13.95;29.96
50292;BME280;36190;54.980;73.388;2023-05-03T06:41:14;102128.75;;;14.02;29.63
50292;BME280;36190;54.980;73.388;2023-05-03T06:43:42;102122.31;;;14.13;29.61
50292;BME280;36190;54.980;73.388;2023-05-03T06:46:09;102124.25;;;14.21;29.21
50292;BME280;36190;54.980;73.388;2023-05-03T06:48:37;102122.28;;;14.23;29.02
50292;BME280;36190;54.980;73.388;2023-05-03T06:51:06;102112.22;;;14.25;28.70
50292;BME280;36190;54.980;73.388;2023-05-03T06:53:33;102121.75;;;14.38;28.80
50292;BME280;36190;54.980;73.388;2023-05-03T06:56:01;102117.31;;;14.47;28.55
50292;BME280;36190;54.980;73.388;2023-05-03T06:58:30;102115.25;;;14.58;28.31
50292;BME280;36190;54.980;73.388;2023-05-03T07:00:57;102121.53;;;14.77;28.18
50292;BME280;36190;54.980;73.388;2023-05-03T07:03:24;102115.50;;;15.02;27.94
50292;BME280;36190;54.980;73.388;2023-05-03T07:05:52;102119.53;;;15.24;27.80
50292;BME280;36190;54.980;73.388;2023-05-03T07:08:21;102124.53;;;15.37;27.37
50292;BME280;36190;54.980;73.388;2023-05-03T07:10:48;102121.72;;;15.47;27.37
50292;BME280;36190;54.980;73.388;2023-05-03T07:13:16;102116.31;;;15.47;27.13
50292;BME280;36190;54.980;73.388;2023-05-03T07:15:43;102118.00;;;15.48;27.07
50292;BME280;36190;54.980;73.388;2023-05-03T07:18:11;102110.53;;;15.60;26.83
50292;BME280;36190;54.980;73.388;2023-05-03T07:20:39;102112.78;;;15.73;26.73
50292;BME280;36190;54.980;73.388;2023-05-03T07:23:06;102125.28;;;15.82;26.42
50292;BME280;36190;54.980;73.388;2023-05-03T07:25:35;102116.28;;;15.91;26.16
50292;BME280;36190;54.980;73.388;2023-05-03T07:28:04;102108.03;;;15.93;25.93
50292;BME280;36190;54.980;73.388;2023-05-03T07:30:31;102109.06;;;16.00;26.08
50292;BME280;36190;54.980;73.388;2023-05-03T07:32:59;102121.69;;;16.00;25.88
50292;BME280;36190;54.980;73.388;2023-05-03T07:35:26;102118.66;;;16.03;25.86
50292;BME280;36190;54.980;73.388;2023-05-03T07:37:54;102111.25;;;16.05;25.74
50292;BME280;36190;54.980;73.388;2023-05-03T07:40:21;102108.59;;;16.13;25.72
50292;BME280;36190;54.980;73.388;2023-05-03T07:42:50;102112.31;;;16.12;25.61
50292;BME280;36190;54.980;73.388;2023-05-03T07:45:18;102118.53;;;16.13;25.52
50292;BME280;36190;54.980;73.388;2023-05-03T07:47:45;102108.31;;;16.25;25.55
50292;BME280;36190;54.980;73.388;2023-05-03T07:50:13;102116.75;;;16.38;25.33
50292;BME280;36190;54.980;73.388;2023-05-03T07:52:40;102117.47;;;16.48;25.26
50292;BME280;36190;54.980;73.388;2023-05-03T07:55:08;102111.25;;;16.56;25.03
50292;BME280;36190;54.980;73.388;2023-05-03T07:57:36;102116.78;;;16.63;25.01
50292;BME280;36190;54.980;73.388;2023-05-03T08:00:06;102109.59;;;16.80;24.81
50292;BME280;36190;54.980;73.388;2023-05-03T08:02:35;102116.03;;;17.04;24.76
50292;BME280;36190;54.980;73.388;2023-05-03T08:05:03;102118.53;;;17.30;24.40
50292;BME280;36190;54.980;73.388;2023-05-03T08:07:31;102123.19;;;17.53;24.12
50292;BME280;36190;54.980;73.388;2023-05-03T08:09:58;102113.03;;;17.72;23.88
50292;BME280;36190;54.980;73.388;2023-05-03T08:12:27;102106.03;;;17.94;23.62
50292;BME280;36190;54.980;73.388;2023-05-03T08:14:54;102105.63;;;18.14;23.25
50292;BME280;36190;54.980;73.388;2023-05-03T08:17:24;102111.78;;;18.31;23.07
50292;BME280;36190;54.980;73.388;2023-05-03T08:19:54;102090.13;;;18.39;22.84
50292;BME280;36190;54.980;73.388;2023-05-03T08:22:21;102104.38;;;18.57;22.86
50292;BME280;36190;54.980;73.388;2023-05-03T08:24:51;102098.69;;;18.66;22.69
50292;BME280;36190;54.980;73.388;2023-05-03T08:27:21;102108.16;;;18.71;22.58
50292;BME280;36190;54.980;73.388;2023-05-03T08:29:49;102103.41;;;18.73;22.51
50292;BME280;36190;54.980;73.388;2023-05-03T08:32:17;102100.84;;;18.94;22.43
50292;BME280;36190;54.980;73.388;2023-05-03T08:34:48;102092.53;;;19.19;22.17
50292;BME280;36190;54.980;73.388;2023-05-03T08:37:16;102092.19;;;19.52;21.88
50292;BME280;36190;54.980;73.388;2023-05-03T08:39:43;102091.22;;;19.90;21.75
50292;BME280;36190;54.980;73.388;2023-05-03T08:42:12;102087.72;;;20.27;21.25
50292;BME280;36190;54.980;73.388;2023-05-03T08:44:44;102089.38;;;20.65;20.91
50292;BME280;36190;54.980;73.388;2023-05-03T08:47:13;102084.69;;;20.80;20.58
50292;BME280;36190;54.980;73.388;2023-05-03T08:49:41;102092.34;;;20.92;20.36
50292;BME280;36190;54.980;73.388;2023-05-03T08:52:13;102097.31;;;21.16;20.05
50292;BME280;36190;54.980;73.388;2023-05-03T08:54:42;102092.91;;;21.44;20.73
50292;BME280;36190;54.980;73.388;2023-05-03T08:57:10;102086.56;;;21.65;20.08
50292;BME280;36190;54.980;73.388;2023-05-03T08:59:47;102085.38;;;21.81;19.52
50292;BME280;36190;54.980;73.388;2023-05-03T09:02:14;102091.91;;;21.87;19.46
50292;BME280;36190;54.980;73.388;2023-05-03T09:04:42;102087.13;;;22.03;19.29
50292;BME280;36190;54.980;73.388;2023-05-03T09:07:11;102083.22;;;22.12;18.96
50292;BME280;36190;54.980;73.388;2023-05-03T09:09:40;102084.47;;;22.16;18.83
50292;BME280;36190;54.980;73.388;2023-05-03T09:12:08;102078.59;;;22.19;18.99
50292;BME280;36190;54.980;73.388;2023-05-03T09:14:42;102086.13;;;22.17;18.33
50292;BME280;36190;54.980;73.388;2023-05-03T09:17:14;102072.59;;;22.24;18.52
50292;BME280;36190;54.980;73.388;2023-05-03T09:19:52;102069.69;;;22.39;18.53
50292;BME280;36190;54.980;73.388;2023-05-03T09:22:22;102079.69;;;22.38;18.25
50292;BME280;36190;54.980;73.388;2023-05-03T09:24:54;102083.69;;;22.36;18.12
50292;BME280;36190;54.980;73.388;2023-05-03T09:27:22;102079.47;;;22.20;18.15
50292;BME280;36190;54.980;73.388;2023-05-03T09:29:50;102069.88;;;22.31;18.38
50292;BME280;36190;54.980;73.388;2023-05-03T09:32:19;102067.03;;;22.52;18.24
50292;BME280;36190;54.980;73.388;2023-05-03T09:34:47;102070.34;;;22.68;18.07
50292;BME280;36190;54.980;73.388;2023-05-03T09:37:15;102070.75;;;22.92;17.88
50292;BME280;36190;54.980;73.388;2023-05-03T09:39:46;102063.66;;;23.04;17.65
50292;BME280;36190;54.980;73.388;2023-05-03T09:42:15;102064.47;;;23.12;17.64
50292;BME280;36190;54.980;73.388;2023-05-03T09:44:44;102061.75;;;23.32;17.20
50292;BME280;36190;54.980;73.388;2023-05-03T09:47:14;102072.38;;;23.47;16.98
50292;BME280;36190;54.980;73.388;2023-05-03T09:49:42;102069.63;;;23.54;16.92
50292;BME280;36190;54.980;73.388;2023-05-03T09:52:10;102068.91;;;23.79;16.74
50292;BME280;36190;54.980;73.388;2023-05-03T09:54:38;102067.56;;;24.08;16.47
50292;BME280;36190;54.980;73.388;2023-05-03T09:57:08;102070.56;;;24.32;16.36
50292;BME280;36190;54.980;73.388;2023-05-03T09:59:37;102067.06;;;24.50;16.38
50292;BME280;36190;54.980;73.388;2023-05-03T10:02:06;102074.75;;;24.60;15.92
50292;BME280;36190;54.980;73.388;2023-05-03T10:04:38;102061.56;;;24.82;15.61
50292;BME280;36190;54.980;73.388;2023-05-03T10:07:11;102054.44;;;25.07;15.65
50292;BME280;36190;54.980;73.388;2023-05-03T10:09:41;102064.22;;;25.15;15.40
50292;BME280;36190;54.980;73.388;2023-05-03T10:12:11;102052.91;;;25.11;15.45
50292;BME280;36190;54.980;73.388;2023-05-03T10:14:42;102066.34;;;25.12;15.23
50292;BME280;36190;54.980;73.388;2023-05-03T10:17:15;102052.31;;;25.27;15.09
50292;BME280;36190;54.980;73.388;2023-05-03T10:19:50;102064.69;;;25.49;15.21
50292;BME280;36190;54.980;73.388;2023-05-03T10:22:18;102059.75;;;25.39;15.14
50292;BME280;36190;54.980;73.388;2023-05-03T10:25:09;102056.44;;;25.56;15.17
50292;BME280;36190;54.980;73.388;2023-05-03T10:27:49;102062.53;;;25.88;14.92
50292;BME280;36190;54.980;73.388;2023-05-03T10:30:35;102059.03;;;26.12;15.18
50292;BME280;36190;54.980;73.388;2023-05-03T10:33:30;102061.69;;;26.18;14.84
50292;BME280;36190;54.980;73.388;2023-05-03T10:36:04;102050.72;;;26.37;14.64
50292;BME280;36190;54.980;73.388;2023-05-03T10:38:31;102046.47;;;26.77;14.64
50292;BME280;36190;54.980;73.388;2023-05-03T10:40:59;102050.06;;;27.13;14.21
50292;BME280;36190;54.980;73.388;2023-05-03T10:43:43;102047.31;;;27.25;13.86
50292;BME280;36190;54.980;73.388;2023-05-03T10:46:35;102040.59;;;27.45;13.96
50292;BME280;36190;54.980;73.388;2023-05-03T10:49:18;102036.09;;;27.80;13.63
50292;BME280;36190;54.980;73.388;2023-05-03T10:51:47;102035.81;;;28.10;13.84
50292;BME280;36190;54.980;73.388;2023-05-03T10:54:14;102031.63;;;28.37;13.22
50292;BME280;36190;54.980;73.388;2023-05-03T10:56:48;102032.19;;;28.73;12.87
50292;BME280;36190;54.980;73.388;2023-05-03T10:59:18;102039.00;;;29.05;12.78
50292;BME280;36190;54.980;73.388;2023-05-03T11:01:48;102026.38;;;29.48;12.64
50292;BME280;36190;54.980;73.388;2023-05-03T11:04:31;102029.84;;;29.88;12.48
50292;BME280;36190;54.980;73.388;2023-05-03T11:07:00;102024.94;;;29.96;12.67
50292;BME280;36190;54.980;73.388;2023-05-03T11:09:32;102033.06;;;29.80;12.04
50292;BME280;36190;54.980;73.388;2023-05-03T11:12:04;102028.16;;;29.60;12.33
50292;BME280;36190;54.980;73.388;2023-05-03T11:14:34;102031.53;;;29.67;12.27
50292;BME280;36190;54.980;73.388;2023-05-03T11:17:04;102028.13;;;29.82;12.20
50292;BME280;36190;54.980;73.388;2023-05-03T11:19:32;102029.50;;;30.12;12.50
50292;BME280;36190;54.980;73.388;2023-05-03T11:22:00;102022.59;;;30.42;12.24
50292;BME280;36190;54.980;73.388;2023-05-03T11:24:28;102027.75;;;30.66;12.06
50292;BME280;36190;54.980;73.388;2023-05-03T11:26:56;102023.59;;;30.64;12.18
50292;BME280;36190;54.980;73.388;2023-05-03T11:29:23;102023.97;;;30.72;11.77
50292;BME280;36190;54.980;73.388;2023-05-03T11:31:54;102021.59;;;30.54;11.56
50292;BME280;36190;54.980;73.388;2023-05-03T11:34:21;102021.38;;;30.28;11.82
50292;BME280;36190;54.980;73.388;2023-05-03T11:36:49;102019.25;;;30.35;11.79
50292;BME280;36190;54.980;73.388;2023-05-03T11:39:16;102018.41;;;30.67;11.69
50292;BME280;36190;54.980;73.388;2023-05-03T11:41:44;102009.69;;;30.86;12.02
50292;BME280;36190;54.980;73.388;2023-05-03T11:44:27;102015.25;;;30.91;11.96
50292;BME280;36190;54.980;73.388;2023-05-03T11:46:56;102022.44;;;30.97;11.37
50292;BME280;36190;54.980;73.388;2023-05-03T11:49:24;102008.78;;;31.23;11.63
50292;BME280;36190;54.980;73.388;2023-05-03T11:51:52;102014.94;;;31.36;11.54
50292;BME280;36190;54.980;73.388;2023-05-03T11:54:20;102017.09;;;31.28;11.46
50292;BME280;36190;54.980;73.388;2023-05-03T11:56:48;102012.47;;;31.50;11.31
50292;BME280;36190;54.980;73.388;2023-05-03T11:59:15;102009.81;;;32.02;11.36
50292;BME280;36190;54.980;73.388;2023-05-03T12:01:43;102005.69;;;32.25;11.13
50292;BME280;36190;54.980;73.388;2023-05-03T12:04:15;102009.56;;;32.34;11.04
50292;BME280;36190;54.980;73.388;2023-05-03T12:06:43;102010.94;;;32.42;11.17
50292;BME280;36190;54.980;73.388;2023-05-03T12:09:17;102002.91;;;32.35;10.97
50292;BME280;36190;54.980;73.388;2023-05-03T12:11:46;102005.69;;;32.35;10.84
50292;BME280;36190;54.980;73.388;2023-05-03T12:14:14;102004.00;;;32.55;10.73
50292;BME280;36190;54.980;73.388;2023-05-03T12:16:46;102002.59;;;32.68;10.46
50292;BME280;36190;54.980;73.388;2023-05-03T12:19:24;102007.00;;;32.95;10.56
50292;BME280;36190;54.980;73.388;2023-05-03T12:21:52;102004.78;;;32.82;10.51
50292;BME280;36190;54.980;73.388;2023-05-03T12:24:19;101993.47;;;32.78;10.54
50292;BME280;36190;54.980;73.388;2023-05-03T12:26:48;102000.38;;;32.81;10.45
50292;BME280;36190;54.980;73.388;2023-05-03T12:29:15;101993.16;;;32.90;10.67
50292;BME280;36190;54.980;73.388;2023-05-03T12:31:44;101994.25;;;32.94;10.62
50292;BME280;36190;54.980;73.388;2023-05-03T12:34:12;101990.03;;;33.12;10.64
50292;BME280;36190;54.980;73.388;2023-05-03T12:36:41;101991.41;;;33.20;10.41
50292;BME280;36190;54.980;73.388;2023-05-03T12:39:08;101985.53;;;33.32;10.26
50292;BME280;36190;54.980;73.388;2023-05-03T12:41:36;101981.91;;;33.37;10.19
50292;BME280;36190;54.980;73.388;2023-05-03T12:44:04;101991.66;;;33.24;10.38
50292;BME280;36190;54.980;73.388;2023-05-03T12:46:31;101983.97;;;33.15;10.42
50292;BME280;36190;54.980;73.388;2023-05-03T12:48:59;101985.63;;;33.11;10.30
50292;BME280;36190;54.980;73.388;2023-05-03T12:51:26;101983.63;;;33.22;10.41